sensor_id;sensor_type;location;lat;lon;timestamp;temperature;humidity
24468;DHT22;12634;50.852;5.676;2023-04-03T00:01:03;1.00;99.90
24468;DHT22;12634;50.852;5.676;2023-04-03T00:03:31;1.10;99.90
24468;DHT22;12634;50.852;5.676;2023-04-03T00:06:00;1.00;99.90
24468;DHT22;12634;50.852;5.676;2023-04-03T00:08:27;1.00;99.90
24468;DHT22;12634;50.852;5.676;2023-04-03T00:10:56;1.10;99.90
24468;DHT22;12634;50.852;5.676;2023-04-03T00:13:23;1.00;99.90
24468;DHT22;12634;50.852;5.676;2023-04-03T00:15:51;1.00;99.90
24468;DHT22;12634;50.852;5.676;2023-04-03T00:18:18;0.80;99.90
24468;DHT22;12634;50.852;5.676;2023-04-03T00:20:45;0.70;99.90
24468;DHT22;12634;50.852;5.676;2023-04-03T00:23:14;0.80;99.90
24468;DHT22;12634;50.852;5.676;2023-04-03T00:25:42;0.80;99.90
24468;DHT22;12634;50.852;5.676;2023-04-03T00:28:09;0.90;99.90
24468;DHT22;12634;50.852;5.676;2023-04-03T00:30:37;0.80;99.90
24468;DHT22;12634;50.852;5.676;2023-04-03T00:33:04;0.80;99.90
24468;DHT22;12634;50.852;5.676;2023-04-03T00:35:31;0.70;99.90
24468;DHT22;12634;50.852;5.676;2023-04-03T00:38:00;0.70;99.90
24468;DHT22;12634;50.852;5.676;2023-04-03T00:40:39;0.70;99.90
24468;DHT22;12634;50.852;5.676;2023-04-03T00:43:11;0.70;99.90
24468;DHT22;12634;50.852;5.676;2023-04-03T00:45:40;0.60;99.90
24468;DHT22;12634;50.852;5.676;2023-04-03T00:48:11;0.40;99.90
24468;DHT22;12634;50.852;5.676;2023-04-03T00:50:41;0.20;99.90
24468;DHT22;12634;50.852;5.676;2023-04-03T00:53:12;0.20;99.90
24468;DHT22;12634;50.852;5.676;2023-04-03T00:55:41;0.20;99.90
24468;DHT22;12634;50.852;5.676;2023-04-03T00:58:10;0.30;99.90
24468;DHT22;12634;50.852;5.676;2023-04-03T01:00:40;0.50;99.90
24468;DHT22;12634;50.852;5.676;2023-04-03T01:03:09;0.50;99.90
24468;DHT22;12634;50.852;5.676;2023-04-03T01:05:36;0.50;99.90
24468;DHT22;12634;50.852;5.676;2023-04-03T01:08:03;0.40;99.90
24468;DHT22;12634;50.852;5.676;2023-04-03T01:10:30;0.40;99.90
24468;DHT22;12634;50.852;5.676;2023-04-03T01:13:00;0.40;99.90
24468;DHT22;12634;50.852;5.676;2023-04-03T01:15:28;0.30;99.90
24468;DHT22;12634;50.852;5.676;2023-04-03T01:18:00;0.20;99.90
24468;DHT22;12634;50.852;5.676;2023-04-03T01:21:13;0.20;99.90
24468;DHT22;12634;50.852;5.676;2023-04-03T01:23:58;0.40;99.90
24468;DHT22;12634;50.852;5.676;2023-04-03T01:26:27;0.30;99.90
24468;DHT22;12634;50.852;5.676;2023-04-03T01:28:58;0.20;99.90
24468;DHT22;12634;50.852;5.676;2023-04-03T01:31:28;0.10;99.90
24468;DHT22;12634;50.852;5.676;2023-04-03T01:33:57;0.10;99.90
24468;DHT22;12634;50.852;5.676;2023-04-03T01:36:27;0.10;99.90
24468;DHT22;12634;50.852;5.676;2023-04-03T01:38:55;0.10;99.90
24468;DHT22;12634;50.852;5.676;2023-04-03T01:41:23;0.00;99.90
24468;DHT22;12634;50.852;5.676;2023-04-03T01:43:51;-0.10;99.90
24468;DHT22;12634;50.852;5.676;2023-04-03T01:46:19;-0.10;99.90
24468;DHT22;12634;50.852;5.676;2023-04-03T01:48:47;-0.10;99.90
24468;DHT22;12634;50.852;5.676;2023-04-03T01:51:16;0.20;99.90
24468;DHT22;12634;50.852;5.676;2023-04-03T01:53:43;0.30;99.90
24468;DHT22;12634;50.852;5.676;2023-04-03T01:56:10;0.20;99.90
24468;DHT22;12634;50.852;5.676;2023-04-03T01:58:37;0.30;99.90
24468;DHT22;12634;50.852;5.676;2023-04-03T02:01:05;0.30;99.90
24468;DHT22;12634;50.852;5.676;2023-04-03T02:03:32;0.40;99.90
24468;DHT22;12634;50.852;5.676;2023-04-03T02:05:59;0.60;99.90
24468;DHT22;12634;50.852;5.676;2023-04-03T02:08:28;0.60;99.90
24468;DHT22;12634;50.852;5.676;2023-04-03T02:10:55;0.60;99.90
24468;DHT22;12634;50.852;5.676;2023-04-03T02:13:22;0.70;99.90
24468;DHT22;12634;50.852;5.676;2023-04-03T02:15:49;0.70;99.90
24468;DHT22;12634;50.852;5.676;2023-04-03T02:18:16;0.60;99.90
24468;DHT22;12634;50.852;5.676;2023-04-03T02:20:44;0.50;99.90
24468;DHT22;12634;50.852;5.676;2023-04-03T02:23:11;0.40;99.90
24468;DHT22;12634;50.852;5.676;2023-04-03T02:25:40;0.40;99.90
24468;DHT22;12634;50.852;5.676;2023-04-03T02:28:07;0.40;99.90
24468;DHT22;12634;50.852;5.676;2023-04-03T02:30:34;0.30;99.90
24468;DHT22;12634;50.852;5.676;2023-04-03T02:33:01;0.30;99.90
24468;DHT22;12634;50.852;5.676;2023-04-03T02:35:28;0.20;99.90
24468;DHT22;12634;50.852;5.676;2023-04-03T02:37:55;0.30;99.90
24468;DHT22;12634;50.852;5.676;2023-04-03T02:40:22;0.20;99.90
24468;DHT22;12634;50.852;5.676;2023-04-03T02:42:51;0.10;99.90
24468;DHT22;12634;50.852;5.676;2023-04-03T02:45:18;0.00;99.90
24468;DHT22;12634;50.852;5.676;2023-04-03T02:47:45;0.10;99.90
24468;DHT22;12634;50.852;5.676;2023-04-03T02:50:13;0.20;99.90
24468;DHT22;12634;50.852;5.676;2023-04-03T02:52:40;0.50;99.90
24468;DHT22;12634;50.852;5.676;2023-04-03T02:55:07;0.50;99.90
24468;DHT22;12634;50.852;5.676;2023-04-03T02:57:35;0.40;99.90
24468;DHT22;12634;50.852;5.676;2023-04-03T03:00:04;0.40;99.90
24468;DHT22;12634;50.852;5.676;2023-04-03T03:02:32;0.50;99.90
24468;DHT22;12634;50.852;5.676;2023-04-03T03:04:59;0.60;99.90
24468;DHT22;12634;50.852;5.676;2023-04-03T03:07:26;0.50;99.90
24468;DHT22;12634;50.852;5.676;2023-04-03T03:09:53;0.50;99.90
24468;DHT22;12634;50.852;5.676;2023-04-03T03:12:21;0.50;99.90
24468;DHT22;12634;50.852;5.676;2023-04-03T03:14:49;0.60;99.90
24468;DHT22;12634;50.852;5.676;2023-04-03T03:17:18;0.70;99.90
24468;DHT22;12634;50.852;5.676;2023-04-03T03:19:45;0.70;99.90
24468;DHT22;12634;50.852;5.676;2023-04-03T03:22:12;0.70;99.90
24468;DHT22;12634;50.852;5.676;2023-04-03T03:24:39;0.80;99.90
24468;DHT22;12634;50.852;5.676;2023-04-03T03:27:07;0.80;99.90
24468;DHT22;12634;50.852;5.676;2023-04-03T03:29:34;0.70;99.90
24468;DHT22;12634;50.852;5.676;2023-04-03T03:32:01;0.50;99.90
24468;DHT22;12634;50.852;5.676;2023-04-03T03:34:29;0.50;99.90
24468;DHT22;12634;50.852;5.676;2023-04-03T03:36:57;0.20;99.90
24468;DHT22;12634;50.852;5.676;2023-04-03T03:39:24;0.20;99.90
24468;DHT22;12634;50.852;5.676;2023-04-03T03:41:51;0.30;99.90
24468;DHT22;12634;50.852;5.676;2023-04-03T03:44:19;0.20;99.90
24468;DHT22;12634;50.852;5.676;2023-04-03T03:46:46;0.20;99.90
24468;DHT22;12634;50.852;5.676;2023-04-03T03:49:13;0.00;99.90
24468;DHT22;12634;50.852;5.676;2023-04-03T03:51:42;0.10;99.90
24468;DHT22;12634;50.852;5.676;2023-04-03T03:54:10;0.20;99.90
24468;DHT22;12634;50.852;5.676;2023-04-03T03:56:37;0.10;99.90
24468;DHT22;12634;50.852;5.676;2023-04-03T03:59:04;0.20;99.90
24468;DHT22;12634;50.852;5.676;2023-04-03T04:01:32;0.40;99.90
24468;DHT22;12634;50.852;5.676;2023-04-03T04:03:59;0.60;99.90
24468;DHT22;12634;50.852;5.676;2023-04-03T04:06:26;0.60;99.90
24468;DHT22;12634;50.852;5.676;2023-04-03T04:08:55;0.60;99.90
24468;DHT22;12634;50.852;5.676;2023-04-03T04:11:22;0.50;99.90
24468;DHT22;12634;50.852;5.676;2023-04-03T04:13:49;0.20;99.90
24468;DHT22;12634;50.852;5.676;2023-04-03T04:16:16;0.20;99.90
24468;DHT22;12634;50.852;5.676;2023-04-03T04:18:43;0.10;99.90
24468;DHT22;12634;50.852;5.676;2023-04-03T04:21:10;-0.10;99.90
24468;DHT22;12634;50.852;5.676;2023-04-03T04:23:37;0.00;99.90
24468;DHT22;12634;50.852;5.676;2023-04-03T04:26:06;0.10;99.90
24468;DHT22;12634;50.852;5.676;2023-04-03T04:28:33;0.00;99.90
24468;DHT22;12634;50.852;5.676;2023-04-03T04:31:00;0.10;99.90
24468;DHT22;12634;50.852;5.676;2023-04-03T04:33:27;0.10;99.90
24468;DHT22;12634;50.852;5.676;2023-04-03T04:35:54;0.00;99.90
24468;DHT22;12634;50.852;5.676;2023-04-03T04:38:22;0.00;99.90
24468;DHT22;12634;50.852;5.676;2023-04-03T04:40:49;0.20;99.90
24468;DHT22;12634;50.852;5.676;2023-04-03T04:43:17;0.30;99.90
24468;DHT22;12634;50.852;5.676;2023-04-03T04:45:45;0.30;99.90
24468;DHT22;12634;50.852;5.676;2023-04-03T04:48:12;0.20;99.90
24468;DHT22;12634;50.852;5.676;2023-04-03T04:50:39;0.00;99.90
24468;DHT22;12634;50.852;5.676;2023-04-03T04:53:06;-0.10;99.90
24468;DHT22;12634;50.852;5.676;2023-04-03T04:55:34;-0.10;99.90
24468;DHT22;12634;50.852;5.676;2023-04-03T04:58:01;0.20;99.90
24468;DHT22;12634;50.852;5.676;2023-04-03T05:00:30;0.30;99.90
24468;DHT22;12634;50.852;5.676;2023-04-03T05:02:57;0.40;99.90
24468;DHT22;12634;50.852;5.676;2023-04-03T05:05:24;0.40;99.90
24468;DHT22;12634;50.852;5.676;2023-04-03T05:07:51;0.40;99.90
24468;DHT22;12634;50.852;5.676;2023-04-03T05:10:18;0.30;99.90
24468;DHT22;12634;50.852;5.676;2023-04-03T05:12:46;0.20;99.90
24468;DHT22;12634;50.852;5.676;2023-04-03T05:15:13;0.20;99.90
24468;DHT22;12634;50.852;5.676;2023-04-03T05:17:41;0.10;99.90
24468;DHT22;12634;50.852;5.676;2023-04-03T05:20:09;0.40;99.90
24468;DHT22;12634;50.852;5.676;2023-04-03T05:22:37;0.40;99.90
24468;DHT22;12634;50.852;5.676;2023-04-03T05:25:05;0.60;99.90
24468;DHT22;12634;50.852;5.676;2023-04-03T05:27:32;1.00;99.90
24468;DHT22;12634;50.852;5.676;2023-04-03T05:29:59;1.10;99.90
24468;DHT22;12634;50.852;5.676;2023-04-03T05:32:27;1.20;99.90
24468;DHT22;12634;50.852;5.676;2023-04-03T05:34:55;1.60;99.90
24468;DHT22;12634;50.852;5.676;2023-04-03T05:37:22;1.80;99.90
24468;DHT22;12634;50.852;5.676;2023-04-03T05:39:49;1.90;99.90
24468;DHT22;12634;50.852;5.676;2023-04-03T05:42:17;2.10;99.90
24468;DHT22;12634;50.852;5.676;2023-04-03T05:44:44;2.30;99.90
24468;DHT22;12634;50.852;5.676;2023-04-03T05:47:12;2.40;99.90
24468;DHT22;12634;50.852;5.676;2023-04-03T05:49:40;2.60;99.90
24468;DHT22;12634;50.852;5.676;2023-04-03T05:52:16;2.80;99.90
24468;DHT22;12634;50.852;5.676;2023-04-03T05:54:44;3.00;99.90
24468;DHT22;12634;50.852;5.676;2023-04-03T05:57:13;2.70;99.90
24468;DHT22;12634;50.852;5.676;2023-04-03T05:59:42;2.50;99.90
24468;DHT22;12634;50.852;5.676;2023-04-03T06:02:10;2.80;99.90
24468;DHT22;12634;50.852;5.676;2023-04-03T06:04:38;3.10;99.90
24468;DHT22;12634;50.852;5.676;2023-04-03T06:07:06;3.50;99.90
24468;DHT22;12634;50.852;5.676;2023-04-03T06:09:34;3.90;99.90
24468;DHT22;12634;50.852;5.676;2023-04-03T06:12:02;4.00;99.90
24468;DHT22;12634;50.852;5.676;2023-04-03T06:14:29;3.80;99.90
24468;DHT22;12634;50.852;5.676;2023-04-03T06:16:56;3.70;99.90
24468;DHT22;12634;50.852;5.676;2023-04-03T06:19:23;3.60;99.90
24468;DHT22;12634;50.852;5.676;2023-04-03T06:21:51;3.60;99.90
24468;DHT22;12634;50.852;5.676;2023-04-03T06:24:18;3.50;99.90
24468;DHT22;12634;50.852;5.676;2023-04-03T06:26:49;3.50;99.90
24468;DHT22;12634;50.852;5.676;2023-04-03T06:29:17;3.60;99.90
24468;DHT22;12634;50.852;5.676;2023-04-03T06:31:44;3.80;99.90
24468;DHT22;12634;50.852;5.676;2023-04-03T06:34:12;3.90;99.90
24468;DHT22;12634;50.852;5.676;2023-04-03T06:36:39;3.90;99.90
24468;DHT22;12634;50.852;5.676;2023-04-03T06:39:07;4.10;99.90
24468;DHT22;12634;50.852;5.676;2023-04-03T06:41:35;4.70;99.90
24468;DHT22;12634;50.852;5.676;2023-04-03T06:44:04;5.10;99.90
24468;DHT22;12634;50.852;5.676;2023-04-03T06:46:31;5.50;99.90
24468;DHT22;12634;50.852;5.676;2023-04-03T06:48:58;5.80;99.90
24468;DHT22;12634;50.852;5.676;2023-04-03T06:51:27;6.10;99.90
24468;DHT22;12634;50.852;5.676;2023-04-03T06:53:56;6.30;99.90
24468;DHT22;12634;50.852;5.676;2023-04-03T06:56:23;6.40;99.90
24468;DHT22;12634;50.852;5.676;2023-04-03T06:58:51;6.60;99.90
24468;DHT22;12634;50.852;5.676;2023-04-03T07:01:21;6.90;99.90
24468;DHT22;12634;50.852;5.676;2023-04-03T07:03:48;7.30;99.90
24468;DHT22;12634;50.852;5.676;2023-04-03T07:06:17;7.40;99.90
24468;DHT22;12634;50.852;5.676;2023-04-03T07:08:45;7.60;99.90
24468;DHT22;12634;50.852;5.676;2023-04-03T07:11:13;7.90;99.90
24468;DHT22;12634;50.852;5.676;2023-04-03T07:13:41;8.10;99.90
24468;DHT22;12634;50.852;5.676;2023-04-03T07:16:08;8.20;99.90
24468;DHT22;12634;50.852;5.676;2023-04-03T07:18:38;8.10;99.90
24468;DHT22;12634;50.852;5.676;2023-04-03T07:21:05;8.20;99.90
24468;DHT22;12634;50.852;5.676;2023-04-03T07:23:32;8.20;99.90
24468;DHT22;12634;50.852;5.676;2023-04-03T07:26:00;8.70;99.90
24468;DHT22;12634;50.852;5.676;2023-04-03T07:28:27;8.50;99.90
24468;DHT22;12634;50.852;5.676;2023-04-03T07:31:00;8.40;99.90
24468;DHT22;12634;50.852;5.676;2023-04-03T07:33:28;8.80;99.90
24468;DHT22;12634;50.852;5.676;2023-04-03T07:35:57;9.30;99.90
24468;DHT22;12634;50.852;5.676;2023-04-03T07:38:24;9.40;99.90
24468;DHT22;12634;50.852;5.676;2023-04-03T07:40:51;9.50;99.90
24468;DHT22;12634;50.852;5.676;2023-04-03T07:43:21;9.80;99.90
24468;DHT22;12634;50.852;5.676;2023-04-03T07:45:51;9.70;99.90
24468;DHT22;12634;50.852;5.676;2023-04-03T07:48:20;10.00;99.90
24468;DHT22;12634;50.852;5.676;2023-04-03T07:50:48;10.40;99.90
24468;DHT22;12634;50.852;5.676;2023-04-03T07:53:17;10.10;99.90
24468;DHT22;12634;50.852;5.676;2023-04-03T07:55:46;10.20;99.90
24468;DHT22;12634;50.852;5.676;2023-04-03T07:58:16;10.30;99.90
24468;DHT22;12634;50.852;5.676;2023-04-03T08:00:43;10.50;99.90
24468;DHT22;12634;50.852;5.676;2023-04-03T08:03:11;10.60;99.90
24468;DHT22;12634;50.852;5.676;2023-04-03T08:05:39;9.90;99.90
24468;DHT22;12634;50.852;5.676;2023-04-03T08:08:07;9.70;99.90
24468;DHT22;12634;50.852;5.676;2023-04-03T08:10:35;10.00;99.90
24468;DHT22;12634;50.852;5.676;2023-04-03T08:13:03;10.40;99.90
24468;DHT22;12634;50.852;5.676;2023-04-03T08:15:31;10.50;99.90
24468;DHT22;12634;50.852;5.676;2023-04-03T08:18:00;10.30;99.90
24468;DHT22;12634;50.852;5.676;2023-04-03T08:20:27;9.70;99.90
24468;DHT22;12634;50.852;5.676;2023-04-03T08:22:55;10.10;99.90
24468;DHT22;12634;50.852;5.676;2023-04-03T08:25:22;10.50;99.90
24468;DHT22;12634;50.852;5.676;2023-04-03T08:27:51;10.90;99.90
24468;DHT22;12634;50.852;5.676;2023-04-03T08:30:18;10.60;99.90
24468;DHT22;12634;50.852;5.676;2023-04-03T08:32:45;10.50;99.90
24468;DHT22;12634;50.852;5.676;2023-04-03T08:35:13;10.70;99.90
24468;DHT22;12634;50.852;5.676;2023-04-03T08:37:40;10.10;99.90
24468;DHT22;12634;50.852;5.676;2023-04-03T08:40:13;10.30;99.90
24468;DHT22;12634;50.852;5.676;2023-04-03T08:42:48;10.70;99.90
24468;DHT22;12634;50.852;5.676;2023-04-03T08:45:22;11.00;99.90
24468;DHT22;12634;50.852;5.676;2023-04-03T08:47:59;11.20;99.90
24468;DHT22;12634;50.852;5.676;2023-04-03T08:50:31;11.00;99.90
24468;DHT22;12634;50.852;5.676;2023-04-03T08:53:01;11.00;99.90
24468;DHT22;12634;50.852;5.676;2023-04-03T08:55:33;11.00;99.90
24468;DHT22;12634;50.852;5.676;2023-04-03T08:58:02;10.60;99.90
24468;DHT22;12634;50.852;5.676;2023-04-03T09:00:37;10.50;99.90
24468;DHT22;12634;50.852;5.676;2023-04-03T09:03:12;10.20;99.90
24468;DHT22;12634;50.852;5.676;2023-04-03T09:05:43;9.90;99.90
24468;DHT22;12634;50.852;5.676;2023-04-03T09:08:21;10.40;99.90
24468;DHT22;12634;50.852;5.676;2023-04-03T09:10:49;11.10;99.90
24468;DHT22;12634;50.852;5.676;2023-04-03T09:13:26;11.00;99.90
24468;DHT22;12634;50.852;5.676;2023-04-03T09:16:00;10.90;99.90
24468;DHT22;12634;50.852;5.676;2023-04-03T09:18:34;10.90;99.90
24468;DHT22;12634;50.852;5.676;2023-04-03T09:21:11;11.10;99.90
24468;DHT22;12634;50.852;5.676;2023-04-03T09:23:43;11.10;99.90
24468;DHT22;12634;50.852;5.676;2023-04-03T09:26:15;10.70;99.90
24468;DHT22;12634;50.852;5.676;2023-04-03T09:28:45;10.50;99.90
24468;DHT22;12634;50.852;5.676;2023-04-03T09:31:20;10.60;99.90
24468;DHT22;12634;50.852;5.676;2023-04-03T09:33:49;10.60;99.90
24468;DHT22;12634;50.852;5.676;2023-04-03T09:36:38;10.80;99.90
24468;DHT22;12634;50.852;5.676;2023-04-03T09:39:07;11.10;99.90
24468;DHT22;12634;50.852;5.676;2023-04-03T09:41:36;10.40;99.90
24468;DHT22;12634;50.852;5.676;2023-04-03T09:44:20;10.50;99.90
24468;DHT22;12634;50.852;5.676;2023-04-03T09:46:49;10.80;99.90
24468;DHT22;12634;50.852;5.676;2023-04-03T09:49:18;10.70;99.90
24468;DHT22;12634;50.852;5.676;2023-04-03T09:51:45;11.00;99.90
24468;DHT22;12634;50.852;5.676;2023-04-03T09:54:33;10.90;99.90
24468;DHT22;12634;50.852;5.676;2023-04-03T09:57:10;10.80;99.90
24468;DHT22;12634;50.852;5.676;2023-04-03T09:59:44;10.50;99.90
24468;DHT22;12634;50.852;5.676;2023-04-03T10:02:34;11.00;99.90
24468;DHT22;12634;50.852;5.676;2023-04-03T10:05:03;11.20;99.90
24468;DHT22;12634;50.852;5.676;2023-04-03T10:07:35;11.30;99.90
24468;DHT22;12634;50.852;5.676;2023-04-03T10:10:17;11.10;99.90
24468;DHT22;12634;50.852;5.676;2023-04-03T10:12:45;11.10;99.90
24468;DHT22;12634;50.852;5.676;2023-04-03T10:15:14;11.30;99.90
24468;DHT22;12634;50.852;5.676;2023-04-03T10:17:51;11.00;99.90
24468;DHT22;12634;50.852;5.676;2023-04-03T10:20:33;11.10;99.90
24468;DHT22;12634;50.852;5.676;2023-04-03T10:23:14;11.70;99.90
24468;DHT22;12634;50.852;5.676;2023-04-03T10:25:50;11.30;99.90
24468;DHT22;12634;50.852;5.676;2023-04-03T10:28:27;11.10;99.90
24468;DHT22;12634;50.852;5.676;2023-04-03T10:31:00;11.50;99.90
24468;DHT22;12634;50.852;5.676;2023-04-03T10:33:45;11.60;99.90
24468;DHT22;12634;50.852;5.676;2023-04-03T10:36:23;11.10;99.90
24468;DHT22;12634;50.852;5.676;2023-04-03T10:39:00;11.00;99.90
24468;DHT22;12634;50.852;5.676;2023-04-03T10:41:36;10.70;99.90
24468;DHT22;12634;50.852;5.676;2023-04-03T10:44:13;10.90;99.90
24468;DHT22;12634;50.852;5.676;2023-04-03T10:46:45;11.30;99.90
24468;DHT22;12634;50.852;5.676;2023-04-03T10:49:25;10.70;99.90
24468;DHT22;12634;50.852;5.676;2023-04-03T10:52:05;11.00;99.90
24468;DHT22;12634;50.852;5.676;2023-04-03T10:54:37;11.60;99.90
24468;DHT22;12634;50.852;5.676;2023-04-03T10:57:08;11.50;99.90
24468;DHT22;12634;50.852;5.676;2023-04-03T10:59:38;11.40;99.90
24468;DHT22;12634;50.852;5.676;2023-04-03T11:02:16;11.70;99.90
24468;DHT22;12634;50.852;5.676;2023-04-03T11:04:49;11.20;99.90
24468;DHT22;12634;50.852;5.676;2023-04-03T11:07:20;11.40;99.90
24468;DHT22;12634;50.852;5.676;2023-04-03T11:09:50;11.30;99.90
24468;DHT22;12634;50.852;5.676;2023-04-03T11:12:23;11.50;99.90
24468;DHT22;12634;50.852;5.676;2023-04-03T11:14:52;11.20;99.90
24468;DHT22;12634;50.852;5.676;2023-04-03T11:17:28;11.20;99.90
24468;DHT22;12634;50.852;5.676;2023-04-03T11:20:01;11.60;99.90
24468;DHT22;12634;50.852;5.676;2023-04-03T11:22:33;11.80;99.90
24468;DHT22;12634;50.852;5.676;2023-04-03T11:25:05;11.70;99.90
24468;DHT22;12634;50.852;5.676;2023-04-03T11:27:38;11.30;99.90
24468;DHT22;12634;50.852;5.676;2023-04-03T11:30:12;11.60;99.90
24468;DHT22;12634;50.852;5.676;2023-04-03T11:35:45;11.60;99.60
24468;DHT22;12634;50.852;5.676;2023-04-03T11:38:19;11.50;99.90
24468;DHT22;12634;50.852;5.676;2023-04-03T11:40:49;11.10;99.00
24468;DHT22;12634;50.852;5.676;2023-04-03T11:43:22;11.50;99.90
24468;DHT22;12634;50.852;5.676;2023-04-03T11:45:54;11.50;99.90
24468;DHT22;12634;50.852;5.676;2023-04-03T11:48:49;12.20;99.30
24468;DHT22;12634;50.852;5.676;2023-04-03T11:51:51;12.50;99.30
24468;DHT22;12634;50.852;5.676;2023-04-03T11:54:51;12.30;98.10
24468;DHT22;12634;50.852;5.676;2023-04-03T11:57:46;12.70;99.10
24468;DHT22;12634;50.852;5.676;2023-04-03T12:00:49;12.70;96.90
24468;DHT22;12634;50.852;5.676;2023-04-03T12:03:34;12.50;94.70
24468;DHT22;12634;50.852;5.676;2023-04-03T12:12:58;12.70;98.30
24468;DHT22;12634;50.852;5.676;2023-04-03T12:15:50;13.10;99.50
24468;DHT22;12634;50.852;5.676;2023-04-03T12:21:19;12.90;96.20
24468;DHT22;12634;50.852;5.676;2023-04-03T12:23:58;12.40;98.80
24468;DHT22;12634;50.852;5.676;2023-04-03T12:26:35;12.80;96.60
24468;DHT22;12634;50.852;5.676;2023-04-03T12:29:13;12.50;96.70
24468;DHT22;12634;50.852;5.676;2023-04-03T12:31:48;12.90;98.20
24468;DHT22;12634;50.852;5.676;2023-04-03T12:34:27;13.10;99.30
24468;DHT22;12634;50.852;5.676;2023-04-03T12:37:03;13.80;99.30
24468;DHT22;12634;50.852;5.676;2023-04-03T12:39:48;13.50;97.50
24468;DHT22;12634;50.852;5.676;2023-04-03T12:42:30;13.10;97.10
24468;DHT22;12634;50.852;5.676;2023-04-03T12:45:03;13.00;97.70
24468;DHT22;12634;50.852;5.676;2023-04-03T12:47:36;13.40;96.70
24468;DHT22;12634;50.852;5.676;2023-04-03T12:50:17;13.10;98.30
24468;DHT22;12634;50.852;5.676;2023-04-03T12:52:59;12.80;97.70
24468;DHT22;12634;50.852;5.676;2023-04-03T12:55:28;13.00;97.60
24468;DHT22;12634;50.852;5.676;2023-04-03T12:57:55;13.30;98.10
24468;DHT22;12634;50.852;5.676;2023-04-03T13:00:30;13.90;98.30
24468;DHT22;12634;50.852;5.676;2023-04-03T13:02:59;13.90;97.40
24468;DHT22;12634;50.852;5.676;2023-04-03T13:05:27;14.60;96.00
24468;DHT22;12634;50.852;5.676;2023-04-03T13:07:59;14.20;98.50
24468;DHT22;12634;50.852;5.676;2023-04-03T13:10:29;14.70;96.20
24468;DHT22;12634;50.852;5.676;2023-04-03T13:12:58;14.20;96.60
24468;DHT22;12634;50.852;5.676;2023-04-03T13:15:43;14.00;94.90
24468;DHT22;12634;50.852;5.676;2023-04-03T13:18:27;14.30;94.10
24468;DHT22;12634;50.852;5.676;2023-04-03T13:20:58;14.80;93.90
24468;DHT22;12634;50.852;5.676;2023-04-03T13:23:26;13.90;94.80
24468;DHT22;12634;50.852;5.676;2023-04-03T13:25:54;14.20;94.60
24468;DHT22;12634;50.852;5.676;2023-04-03T13:28:24;14.60;96.30
24468;DHT22;12634;50.852;5.676;2023-04-03T13:31:00;14.70;93.30
24468;DHT22;12634;50.852;5.676;2023-04-03T13:33:31;14.40;93.60
24468;DHT22;12634;50.852;5.676;2023-04-03T13:36:03;14.00;94.30
24468;DHT22;12634;50.852;5.676;2023-04-03T13:38:32;14.10;93.80
24468;DHT22;12634;50.852;5.676;2023-04-03T13:41:02;14.50;93.20
24468;DHT22;12634;50.852;5.676;2023-04-03T13:43:32;14.60;93.90
24468;DHT22;12634;50.852;5.676;2023-04-03T13:46:05;14.70;92.50
24468;DHT22;12634;50.852;5.676;2023-04-03T13:48:41;14.80;91.50
24468;DHT22;12634;50.852;5.676;2023-04-03T13:51:19;14.70;92.50
24468;DHT22;12634;50.852;5.676;2023-04-03T13:53:49;14.90;93.00
24468;DHT22;12634;50.852;5.676;2023-04-03T13:56:21;14.90;93.40
24468;DHT22;12634;50.852;5.676;2023-04-03T13:58:55;15.10;93.50
24468;DHT22;12634;50.852;5.676;2023-04-03T14:01:33;15.00;93.00
24468;DHT22;12634;50.852;5.676;2023-04-03T14:04:10;15.60;90.70
24468;DHT22;12634;50.852;5.676;2023-04-03T14:06:38;14.70;94.60
24468;DHT22;12634;50.852;5.676;2023-04-03T14:09:05;14.90;92.10
24468;DHT22;12634;50.852;5.676;2023-04-03T14:11:34;14.90;91.50
24468;DHT22;12634;50.852;5.676;2023-04-03T14:14:05;14.90;93.10
24468;DHT22;12634;50.852;5.676;2023-04-03T14:16:40;15.10;90.50
24468;DHT22;12634;50.852;5.676;2023-04-03T14:19:17;14.70;92.40
24468;DHT22;12634;50.852;5.676;2023-04-03T14:21:44;14.50;92.70
24468;DHT22;12634;50.852;5.676;2023-04-03T14:24:12;14.80;91.50
24468;DHT22;12634;50.852;5.676;2023-04-03T14:26:39;14.20;90.20
24468;DHT22;12634;50.852;5.676;2023-04-03T14:29:08;14.90;89.40
24468;DHT22;12634;50.852;5.676;2023-04-03T14:31:38;14.50;85.80
24468;DHT22;12634;50.852;5.676;2023-04-03T14:34:05;13.90;90.00
24468;DHT22;12634;50.852;5.676;2023-04-03T14:36:33;14.10;90.10
24468;DHT22;12634;50.852;5.676;2023-04-03T14:39:00;14.50;88.20
24468;DHT22;12634;50.852;5.676;2023-04-03T14:41:28;14.80;91.30
24468;DHT22;12634;50.852;5.676;2023-04-03T14:43:55;14.70;90.10
24468;DHT22;12634;50.852;5.676;2023-04-03T14:46:25;14.60;88.90
24468;DHT22;12634;50.852;5.676;2023-04-03T14:48:55;14.20;86.70
24468;DHT22;12634;50.852;5.676;2023-04-03T14:51:22;14.30;87.30
24468;DHT22;12634;50.852;5.676;2023-04-03T14:53:49;15.00;88.20
24468;DHT22;12634;50.852;5.676;2023-04-03T14:56:18;15.10;86.90
24468;DHT22;12634;50.852;5.676;2023-04-03T14:58:48;15.00;88.10
24468;DHT22;12634;50.852;5.676;2023-04-03T15:01:16;14.70;85.90
24468;DHT22;12634;50.852;5.676;2023-04-03T15:03:44;14.20;88.80
24468;DHT22;12634;50.852;5.676;2023-04-03T15:06:13;14.60;89.70
24468;DHT22;12634;50.852;5.676;2023-04-03T15:08:42;14.50;87.10
24468;DHT22;12634;50.852;5.676;2023-04-03T15:11:10;14.30;88.90
24468;DHT22;12634;50.852;5.676;2023-04-03T15:13:38;14.50;86.40
24468;DHT22;12634;50.852;5.676;2023-04-03T15:16:10;14.90;84.70
24468;DHT22;12634;50.852;5.676;2023-04-03T15:18:39;14.30;88.20
24468;DHT22;12634;50.852;5.676;2023-04-03T15:21:06;15.10;85.10
24468;DHT22;12634;50.852;5.676;2023-04-03T15:23:35;15.30;83.10
24468;DHT22;12634;50.852;5.676;2023-04-03T15:26:03;14.70;83.50
24468;DHT22;12634;50.852;5.676;2023-04-03T15:28:32;14.90;82.90
24468;DHT22;12634;50.852;5.676;2023-04-03T15:31:01;15.00;85.00
24468;DHT22;12634;50.852;5.676;2023-04-03T15:33:29;14.90;86.70
24468;DHT22;12634;50.852;5.676;2023-04-03T15:35:56;14.20;83.40
24468;DHT22;12634;50.852;5.676;2023-04-03T15:38:23;14.50;81.70
24468;DHT22;12634;50.852;5.676;2023-04-03T15:40:52;14.50;84.50
24468;DHT22;12634;50.852;5.676;2023-04-03T15:43:20;14.00;84.60
24468;DHT22;12634;50.852;5.676;2023-04-03T15:45:47;14.00;85.10
24468;DHT22;12634;50.852;5.676;2023-04-03T15:48:15;14.10;87.50
24468;DHT22;12634;50.852;5.676;2023-04-03T15:50:42;14.30;84.50
24468;DHT22;12634;50.852;5.676;2023-04-03T15:53:09;14.30;84.10
24468;DHT22;12634;50.852;5.676;2023-04-03T15:55:38;14.50;86.00
24468;DHT22;12634;50.852;5.676;2023-04-03T15:58:08;14.40;83.70
24468;DHT22;12634;50.852;5.676;2023-04-03T16:00:36;14.10;89.00
24468;DHT22;12634;50.852;5.676;2023-04-03T16:03:06;13.70;89.20
24468;DHT22;12634;50.852;5.676;2023-04-03T16:05:35;13.80;83.20
24468;DHT22;12634;50.852;5.676;2023-04-03T16:08:04;13.10;90.00
24468;DHT22;12634;50.852;5.676;2023-04-03T16:10:33;13.40;89.20